Portada
METAR-TAF:

METAR-TAF

Aeropuertos :

Ouargla, Argelia

latitud: 31-55N, longitud: 005-24E, altitud: 141 m

Observación

El informe se hizo hace 40 minutos, a las 10:00 UTC
Viento 15 kt del norte-noreste, variando entre norte y este-noreste
Temperatura 33°C
Humedad 26%
Presión 1005 hPa
Visibilidad: 6000 m

METAR: DAUU 241000Z 03015KT 360V060 6000 NSC 33/11 Q1005

Hora: 11:40 (10:40 UTC)

Pronóstico

El informe se hizo hace 2 horas y 40 minutos, a las 08:00 UTC
Pronóstico válido del 24 a las 09 UTC al 24 a las 18 UTC
Viento 14 kt del noreste
Visibilidad: 8000 m
Probabilidad 30% :
Temporalmente
del 24 a las 11 UTC al 24 a las 16 UTC
Viento 15 kt del noreste con ráfagas de 25 kt
Visibilidad: 3000 m
Ventisca baja de arena,

TAF: DAUU 240800Z 2409/2418 04014KT 8000 NSC PROB30 TEMPO 2411/2416 04015G25KT 3000 DRSA

Observaciones y pronósticos meteorológicos de más de 4000 aeropuertos (mensajes METAR y TAF).

Los puntos amarillos y rojos representan las estaciones disponibles.

Ponga el ratón en el punto deseado para ver el nombre de la estación.

Haga clic para ver las observaciones y los pronósticos meteorológicos.

Para cambiar el mapa : haga clic en los botones verdes con una cruz de color negro para hacer un zoom, en el botón verde con un guión para alejar o en las flechas verdes para mapas adyacentes.


METAR-TAF: